createdAt,value
2023-05-15T00:00:05.325Z,11.72
2023-05-15T00:01:05.338Z,11.72
2023-05-15T00:02:05.366Z,11.72
2023-05-15T00:03:05.439Z,11.72
2023-05-15T00:04:05.434Z,11.69
2023-05-15T00:05:05.465Z,11.66
2023-05-15T00:06:05.445Z,11.66
2023-05-15T00:07:05.450Z,11.61
2023-05-15T00:08:05.476Z,11.61
2023-05-15T00:09:05.493Z,11.61
2023-05-15T00:10:05.504Z,11.58
2023-05-15T00:11:05.543Z,11.58
2023-05-15T00:12:05.535Z,11.56
2023-05-15T00:13:05.552Z,11.56
2023-05-15T00:14:05.558Z,11.51
2023-05-15T00:15:05.577Z,11.51
2023-05-15T00:16:05.609Z,11.51
2023-05-15T00:17:05.649Z,11.48
2023-05-15T00:18:05.691Z,11.48
2023-05-15T00:19:05.737Z,11.45
2023-05-15T00:20:05.708Z,11.42
2023-05-15T00:21:05.744Z,11.4
2023-05-15T00:22:05.754Z,11.4
2023-05-15T00:23:05.788Z,11.4
2023-05-15T00:24:05.803Z,11.38
2023-05-15T00:25:05.825Z,11.38
2023-05-15T00:26:05.883Z,11.38
2023-05-15T00:27:05.883Z,11.36
2023-05-15T00:28:05.894Z,11.38
2023-05-15T00:29:05.913Z,11.33
2023-05-15T00:30:05.945Z,11.3
2023-05-15T00:31:05.992Z,11.25
2023-05-15T00:32:05.984Z,11.25
2023-05-15T00:33:06.046Z,11.25
2023-05-15T00:34:05.992Z,11.24
2023-05-15T00:35:06.002Z,11.26
2023-05-15T00:36:06.041Z,11.22
2023-05-15T00:37:06.024Z,11.19
2023-05-15T00:38:06.061Z,11.18
2023-05-15T00:39:06.085Z,11.16
2023-05-15T00:40:05.125Z,11.18
2023-05-15T00:41:05.138Z,11.2
2023-05-15T00:42:05.182Z,11.2
2023-05-15T00:43:05.307Z,11.2
2023-05-15T00:44:05.215Z,11.14
2023-05-15T00:45:05.237Z,11.09
2023-05-15T00:46:05.258Z,11.06
2023-05-15T00:47:05.337Z,11.06
2023-05-15T00:48:05.353Z,11.06
2023-05-15T00:49:05.344Z,11.06
2023-05-15T00:50:05.349Z,11.04
2023-05-15T00:51:05.364Z,11.04
2023-05-15T00:52:05.396Z,11.04
2023-05-15T00:53:05.432Z,11.04
2023-05-15T00:54:05.565Z,11.02
2023-05-15T00:55:05.459Z,11.02
2023-05-15T00:56:05.479Z,11.02
2023-05-15T00:57:05.494Z,10.98
2023-05-15T00:58:05.504Z,10.96
2023-05-15T00:59:05.524Z,10.96
2023-05-15T01:00:05.541Z,10.94
2023-05-15T01:01:07.450Z,10.9
2023-05-15T01:02:05.619Z,10.9
2023-05-15T01:03:05.727Z,10.9
2023-05-15T01:04:05.599Z,10.88
2023-05-15T01:05:05.632Z,10.86
2023-05-15T01:06:05.668Z,10.84
2023-05-15T01:07:05.663Z,10.84
2023-05-15T01:08:05.688Z,10.84
2023-05-15T01:09:05.718Z,10.84
2023-05-15T01:10:05.749Z,10.81
2023-05-15T01:11:05.802Z,10.78
2023-05-15T01:12:05.846Z,10.76
2023-05-15T01:13:05.832Z,10.76
2023-05-15T01:14:05.851Z,10.7
2023-05-15T01:15:05.867Z,10.7
2023-05-15T01:16:05.888Z,10.7
2023-05-15T01:17:05.928Z,10.7
2023-05-15T01:18:06.173Z,10.68
2023-05-15T01:19:06.037Z,10.68
2023-05-15T01:20:06.020Z,10.56
2023-05-15T01:21:05.995Z,10.56
2023-05-15T01:22:06.004Z,10.54
2023-05-15T01:23:06.040Z,10.5
2023-05-15T01:24:06.101Z,10.47
2023-05-15T01:25:06.056Z,10.42
2023-05-15T01:26:06.059Z,10.38
2023-05-15T01:27:06.081Z,10.35
2023-05-15T01:28:06.081Z,10.28
2023-05-15T01:29:05.117Z,10.26
2023-05-15T01:30:05.145Z,10.24
2023-05-15T01:31:05.167Z,10.25
2023-05-15T01:32:05.218Z,10.23
2023-05-15T01:33:05.257Z,10.23
2023-05-15T01:34:05.256Z,10.17
2023-05-15T01:35:05.277Z,10.17
2023-05-15T01:36:05.298Z,10.17
2023-05-15T01:37:05.347Z,10.15
2023-05-15T01:38:05.353Z,10.15
2023-05-15T01:39:05.384Z,10.13
2023-05-15T01:40:05.417Z,10.09
2023-05-15T01:41:05.432Z,10.09
2023-05-15T01:42:05.502Z,10.11
2023-05-15T01:43:05.469Z,10.08
2023-05-15T01:44:05.502Z,10.07
2023-05-15T01:45:05.527Z,10.05
2023-05-15T01:46:05.610Z,10.05
2023-05-15T01:47:05.577Z,10.05
2023-05-15T01:48:05.647Z,10.01
2023-05-15T01:49:05.589Z,9.992
2023-05-15T01:50:05.614Z,9.992
2023-05-15T01:51:05.633Z,9.992
2023-05-15T01:52:05.638Z,9.992
2023-05-15T01:53:05.662Z,9.992
2023-05-15T01:54:05.655Z,9.992
2023-05-15T01:55:05.670Z,9.992
2023-05-15T01:56:05.697Z,9.992
2023-05-15T01:57:05.757Z,9.992
2023-05-15T01:58:05.749Z,9.992
2023-05-15T01:59:05.793Z,9.931
2023-05-15T02:00:05.824Z,9.912
2023-05-15T02:01:05.835Z,9.912
2023-05-15T02:02:05.910Z,9.912
2023-05-15T02:03:06.006Z,9.912
2023-05-15T02:04:05.986Z,9.912
2023-05-15T02:05:05.940Z,9.912
2023-05-15T02:06:06.004Z,9.912
2023-05-15T02:07:05.998Z,9.857
2023-05-15T02:08:06.038Z,9.857
2023-05-15T02:09:06.040Z,9.833
2023-05-15T02:10:06.028Z,9.833
2023-05-15T02:11:06.030Z,9.833
2023-05-15T02:12:06.044Z,9.852
2023-05-15T02:13:06.062Z,9.852
2023-05-15T02:14:06.096Z,9.796
2023-05-15T02:15:05.095Z,9.778
2023-05-15T02:16:05.187Z,9.796
2023-05-15T02:17:05.133Z,9.796
2023-05-15T02:18:05.139Z,9.796
2023-05-15T02:19:05.199Z,9.796
2023-05-15T02:20:05.163Z,9.773
2023-05-15T02:21:05.193Z,9.791
2023-05-15T02:22:05.202Z,9.791
2023-05-15T02:23:05.184Z,9.759
2023-05-15T02:24:05.202Z,9.759
2023-05-15T02:25:05.215Z,9.759
2023-05-15T02:26:05.247Z,9.759
2023-05-15T02:27:05.285Z,9.759
2023-05-15T02:28:05.283Z,9.759
2023-05-15T02:29:05.292Z,9.704
2023-05-15T02:30:05.298Z,9.704
2023-05-15T02:31:05.322Z,9.704
2023-05-15T02:32:05.331Z,9.704
2023-05-15T02:33:05.384Z,9.704
2023-05-15T02:34:05.345Z,9.704
2023-05-15T02:35:05.354Z,9.704
2023-05-15T02:36:05.367Z,9.728
2023-05-15T02:37:05.364Z,9.728
2023-05-15T02:38:05.373Z,9.728
2023-05-15T02:39:05.401Z,9.728
2023-05-15T02:40:05.389Z,9.728
2023-05-15T02:41:05.424Z,9.752
2023-05-15T02:42:05.395Z,9.752
2023-05-15T02:43:05.410Z,9.752
2023-05-15T02:44:05.408Z,9.728
2023-05-15T02:45:05.418Z,9.728
2023-05-15T02:46:05.546Z,9.728
2023-05-15T02:47:05.481Z,9.728
2023-05-15T02:48:05.569Z,9.728
2023-05-15T02:49:05.517Z,9.728
2023-05-15T02:50:05.553Z,9.728
2023-05-15T02:51:05.574Z,9.728
2023-05-15T02:52:05.623Z,9.728
2023-05-15T02:53:05.638Z,9.728
2023-05-15T02:54:05.657Z,9.752
2023-05-15T02:55:05.675Z,9.752
2023-05-15T02:56:05.695Z,9.752
2023-05-15T02:57:05.738Z,9.752
2023-05-15T02:58:05.747Z,9.752
2023-05-15T02:59:05.777Z,9.775
2023-05-15T03:00:05.798Z,9.775
2023-05-15T03:01:05.848Z,9.775
2023-05-15T03:02:05.825Z,9.752
2023-05-15T03:03:05.860Z,9.696
2023-05-15T03:04:05.916Z,9.733
2023-05-15T03:05:06.553Z,9.752
2023-05-15T03:06:05.912Z,9.752
2023-05-15T03:07:05.931Z,9.752
2023-05-15T03:08:05.946Z,9.733
2023-05-15T03:09:05.967Z,9.752
2023-05-15T03:10:05.961Z,9.789
2023-05-15T03:11:05.990Z,9.789
2023-05-15T03:12:06.014Z,9.789
2023-05-15T03:13:06.043Z,9.831
2023-05-15T03:14:06.088Z,9.807
2023-05-15T03:15:05.104Z,9.807
2023-05-15T03:16:05.134Z,9.807
2023-05-15T03:17:05.221Z,9.807
2023-05-15T03:18:05.219Z,9.807
2023-05-15T03:19:05.233Z,9.807
2023-05-15T03:20:05.210Z,9.807
2023-05-15T03:21:05.236Z,9.807
2023-05-15T03:22:05.267Z,9.807
2023-05-15T03:23:05.293Z,9.807
2023-05-15T03:24:05.331Z,9.807
2023-05-15T03:25:05.359Z,9.807
2023-05-15T03:26:05.371Z,9.807
2023-05-15T03:27:05.392Z,9.807
2023-05-15T03:28:05.400Z,9.807
2023-05-15T03:29:05.420Z,9.789
2023-05-15T03:30:05.425Z,9.789
2023-05-15T03:31:05.480Z,9.807
2023-05-15T03:32:05.452Z,9.807
2023-05-15T03:33:05.489Z,9.844
2023-05-15T03:34:05.464Z,9.868
2023-05-15T03:35:05.475Z,9.886
2023-05-15T03:36:05.494Z,9.886
2023-05-15T03:37:05.536Z,9.886
2023-05-15T03:38:05.561Z,9.91
2023-05-15T03:39:05.563Z,9.91
2023-05-15T03:40:05.587Z,9.892
2023-05-15T03:41:05.686Z,9.934
2023-05-15T03:42:05.639Z,9.915
2023-05-15T03:43:05.679Z,9.915
2023-05-15T03:44:05.691Z,9.897
2023-05-15T03:45:05.703Z,9.939
2023-05-15T03:46:05.790Z,9.921
2023-05-15T03:47:05.811Z,10
2023-05-15T03:48:05.825Z,10
2023-05-15T03:49:05.821Z,10.02
2023-05-15T03:50:05.836Z,10.08
2023-05-15T03:51:05.861Z,10.08
2023-05-15T03:52:05.890Z,10.08
2023-05-15T03:53:05.901Z,10.1
2023-05-15T03:54:05.928Z,10.1
2023-05-15T03:55:05.942Z,10.13
2023-05-15T03:56:06.003Z,10.13
2023-05-15T03:57:05.966Z,10.15
2023-05-15T03:58:05.964Z,10.21
2023-05-15T03:59:05.995Z,10.21
2023-05-15T04:00:06.000Z,10.23
2023-05-15T04:01:06.041Z,10.23
2023-05-15T04:02:06.171Z,10.31
2023-05-15T04:03:06.166Z,10.33
2023-05-15T04:04:05.112Z,10.33
2023-05-15T04:05:05.146Z,10.36
2023-05-15T04:06:05.160Z,10.36
2023-05-15T04:07:05.199Z,10.42
2023-05-15T04:08:05.216Z,10.4
2023-05-15T04:09:05.244Z,10.4
2023-05-15T04:10:05.265Z,10.4
2023-05-15T04:11:05.282Z,10.44
2023-05-15T04:12:05.310Z,10.45
2023-05-15T04:13:05.335Z,10.45
2023-05-15T04:14:05.374Z,10.45
2023-05-15T04:15:05.369Z,10.45
2023-05-15T04:16:05.425Z,10.45
2023-05-15T04:17:05.409Z,10.45
2023-05-15T04:18:05.455Z,10.43
2023-05-15T04:19:05.462Z,10.43
2023-05-15T04:20:05.490Z,10.43
2023-05-15T04:21:05.476Z,10.47
2023-05-15T04:22:05.507Z,10.47
2023-05-15T04:23:05.509Z,10.47
2023-05-15T04:24:05.506Z,10.47
2023-05-15T04:25:05.545Z,10.49
2023-05-15T04:26:05.570Z,10.55
2023-05-15T04:27:05.669Z,10.55
2023-05-15T04:28:05.616Z,10.55
2023-05-15T04:29:05.650Z,10.59
2023-05-15T04:30:05.656Z,10.63
2023-05-15T04:31:05.675Z,10.69
2023-05-15T04:32:05.786Z,10.69
2023-05-15T04:33:05.831Z,10.69
2023-05-15T04:34:05.775Z,10.69
2023-05-15T04:35:05.805Z,10.71
2023-05-15T04:36:05.823Z,10.77
2023-05-15T04:37:05.862Z,10.75
2023-05-15T04:38:05.871Z,10.75
2023-05-15T04:39:05.922Z,10.75
2023-05-15T04:40:05.921Z,10.83
2023-05-15T04:41:05.979Z,10.83
2023-05-15T04:42:05.965Z,10.85
2023-05-15T04:43:06.032Z,10.87
2023-05-15T04:44:05.993Z,10.89
2023-05-15T04:45:06.017Z,10.97
2023-05-15T04:46:06.064Z,10.99
2023-05-15T04:47:06.059Z,10.99
2023-05-15T04:48:06.089Z,10.99
2023-05-15T04:49:06.077Z,11.07
2023-05-15T04:50:05.097Z,11.09
2023-05-15T04:51:05.098Z,11.11
2023-05-15T04:52:05.113Z,11.14
2023-05-15T04:53:05.132Z,11.18
2023-05-15T04:54:05.161Z,11.22
2023-05-15T04:55:05.202Z,11.25
2023-05-15T04:56:05.239Z,11.33
2023-05-15T04:57:05.231Z,11.39
2023-05-15T04:58:05.263Z,11.43
2023-05-15T04:59:05.277Z,11.45
2023-05-15T05:00:05.306Z,11.48
2023-05-15T05:01:05.351Z,11.51
2023-05-15T05:02:05.552Z,11.53
2023-05-15T05:03:05.417Z,11.54
2023-05-15T05:04:05.427Z,11.59
2023-05-15T05:05:05.411Z,11.59
2023-05-15T05:06:05.430Z,11.65
2023-05-15T05:07:05.479Z,11.63
2023-05-15T05:08:05.478Z,11.73
2023-05-15T05:09:05.493Z,11.73
2023-05-15T05:10:05.567Z,11.75
2023-05-15T05:11:05.539Z,11.77
2023-05-15T05:12:05.564Z,11.79
2023-05-15T05:13:05.556Z,11.79
2023-05-15T05:14:05.561Z,11.85
2023-05-15T05:15:05.588Z,11.89
2023-05-15T05:16:05.618Z,11.95
2023-05-15T05:17:05.611Z,11.97
2023-05-15T05:18:05.687Z,11.97
2023-05-15T05:19:05.688Z,12.03
2023-05-15T05:20:05.687Z,12.07
2023-05-15T05:21:05.690Z,12.11
2023-05-15T05:22:06.072Z,12.11
2023-05-15T05:23:05.745Z,12.11
2023-05-15T05:24:05.782Z,12.15
2023-05-15T05:25:05.793Z,12.17
2023-05-15T05:26:06.203Z,12.2
2023-05-15T05:27:05.854Z,12.27
2023-05-15T05:28:05.865Z,12.33
2023-05-15T05:29:05.899Z,12.33
2023-05-15T05:30:05.919Z,12.37
2023-05-15T05:31:05.941Z,12.43
2023-05-15T05:32:05.938Z,12.45
2023-05-15T05:33:06.023Z,12.47
2023-05-15T05:34:05.965Z,12.55
2023-05-15T05:35:06.004Z,12.56
2023-05-15T05:36:06.022Z,12.58
2023-05-15T05:37:06.012Z,12.6
2023-05-15T05:38:06.042Z,12.68
2023-05-15T05:39:06.059Z,12.7
2023-05-15T05:40:06.089Z,12.74
2023-05-15T05:41:05.116Z,12.76
2023-05-15T05:42:05.125Z,12.86
2023-05-15T05:43:05.162Z,12.86
2023-05-15T05:44:05.171Z,12.92
2023-05-15T05:45:05.204Z,12.96
2023-05-15T05:46:05.223Z,13
2023-05-15T05:47:05.271Z,13.04
2023-05-15T05:48:05.294Z,13.06
2023-05-15T05:49:05.258Z,13.14
2023-05-15T05:50:05.291Z,13.16
2023-05-15T05:51:05.309Z,13.19
2023-05-15T05:52:05.355Z,13.3
2023-05-15T05:53:05.354Z,13.35
2023-05-15T05:54:05.399Z,13.43
2023-05-15T05:55:05.409Z,13.53
2023-05-15T05:56:05.422Z,13.68
2023-05-15T05:57:05.455Z,13.88
2023-05-15T05:58:08.664Z,13.99
2023-05-15T05:59:05.517Z,14.21
2023-05-15T06:00:05.549Z,14.43
2023-05-15T06:01:05.581Z,14.6
2023-05-15T06:02:05.634Z,14.86
2023-05-15T06:03:05.657Z,15.05
2023-05-15T06:04:05.771Z,15.24
2023-05-15T06:05:05.640Z,15.44
2023-05-15T06:06:05.647Z,15.6
2023-05-15T06:07:05.694Z,15.81
2023-05-15T06:08:05.689Z,15.95
2023-05-15T06:09:05.723Z,16.11
2023-05-15T06:10:05.734Z,16.25
2023-05-15T06:11:05.735Z,16.4
2023-05-15T06:12:05.768Z,16.62
2023-05-15T06:13:05.761Z,16.74
2023-05-15T06:14:05.771Z,16.88
2023-05-15T06:15:05.778Z,17.07
2023-05-15T06:16:05.802Z,17.19
2023-05-15T06:17:05.906Z,17.29
2023-05-15T06:18:05.889Z,17.4
2023-05-15T06:19:05.933Z,17.62
2023-05-15T06:20:05.928Z,17.71
2023-05-15T06:21:05.985Z,17.84
2023-05-15T06:22:05.978Z,17.98
2023-05-15T06:23:06.004Z,18.09
2023-05-15T06:24:06.027Z,18.24
2023-05-15T06:25:06.137Z,18.35
2023-05-15T06:26:06.076Z,18.45
2023-05-15T06:27:05.110Z,18.54
2023-05-15T06:28:05.140Z,18.63
2023-05-15T06:29:05.156Z,18.84
2023-05-15T06:30:05.187Z,18.93
2023-05-15T06:31:05.280Z,19.04
2023-05-15T06:32:05.240Z,19.2
2023-05-15T06:33:05.552Z,19.28
2023-05-15T06:34:05.291Z,19.4
2023-05-15T06:35:05.301Z,19.47
2023-05-15T06:36:05.305Z,19.57
2023-05-15T06:37:05.328Z,19.67
2023-05-15T06:38:05.344Z,19.78
2023-05-15T06:39:05.353Z,19.89
2023-05-15T06:40:05.379Z,19.93
2023-05-15T06:41:05.395Z,20.06
2023-05-15T06:42:05.400Z,20.15
2023-05-15T06:43:05.412Z,20.27
2023-05-15T06:44:05.420Z,20.33
2023-05-15T06:45:05.460Z,20.44
2023-05-15T06:46:05.530Z,20.51
2023-05-15T06:47:05.564Z,20.67
2023-05-15T06:48:05.615Z,20.71
2023-05-15T06:49:05.558Z,20.79
2023-05-15T06:50:05.596Z,20.87
2023-05-15T06:51:05.615Z,21
2023-05-15T06:52:05.631Z,21
2023-05-15T06:53:05.708Z,21.09
2023-05-15T06:54:05.732Z,21.14
2023-05-15T06:55:05.727Z,21.25
2023-05-15T06:56:05.736Z,21.28
2023-05-15T06:57:05.763Z,21.28
2023-05-15T06:58:05.794Z,21.34
2023-05-15T06:59:05.837Z,21.42
2023-05-15T07:00:05.918Z,21.48
2023-05-15T07:01:05.857Z,21.54
2023-05-15T07:02:05.943Z,21.57
2023-05-15T07:03:05.920Z,21.65
2023-05-15T07:04:05.924Z,21.67
2023-05-15T07:05:06.000Z,21.74
2023-05-15T07:06:05.949Z,21.84
2023-05-15T07:07:05.962Z,21.93
2023-05-15T07:08:05.976Z,22.03
2023-05-15T08:45:46.560Z,26
2023-05-15T08:46:46.656Z,25.93
2023-05-15T08:47:46.647Z,25.79
2023-05-15T08:48:46.616Z,25.71
2023-05-15T08:49:46.591Z,25.64
2023-05-15T08:50:46.598Z,25.5
2023-05-15T08:51:46.603Z,25.43
2023-05-15T08:52:46.616Z,22.6
2023-05-15T08:53:46.636Z,22.6
2023-05-15T08:54:48.082Z,22.56
2023-05-15T08:55:46.656Z,22.56
2023-05-15T08:56:46.658Z,22.52
2023-05-15T08:57:46.664Z,22.52
2023-05-15T08:58:46.679Z,22.49
2023-05-15T08:59:46.689Z,22.49
2023-05-15T09:00:46.678Z,22.45
2023-05-15T09:01:46.754Z,22.45
2023-05-15T09:02:46.824Z,22.42
2023-05-15T09:03:46.763Z,22.42
2023-05-15T09:04:46.715Z,22.42
2023-05-15T09:05:46.720Z,22.38
2023-05-15T09:06:46.734Z,22.35
2023-05-15T09:07:46.734Z,22.27
2023-05-15T09:08:46.745Z,22.29
2023-05-15T09:09:46.753Z,22.31
2023-05-15T09:10:46.749Z,22.28
2023-05-15T09:11:46.755Z,22.25
2023-05-15T09:12:46.769Z,22.21
2023-05-15T09:13:46.769Z,22.24
2023-05-15T09:14:46.796Z,22.18
2023-05-15T09:15:46.795Z,22.17
2023-05-15T09:16:46.863Z,22.14
2023-05-15T09:17:46.843Z,22.11
2023-05-15T09:18:46.863Z,22.06
2023-05-15T09:19:46.863Z,22.06
2023-05-15T09:20:46.886Z,21.15
2023-05-15T09:21:46.901Z,21.15
2023-05-15T09:22:46.920Z,21.14
2023-05-15T09:23:46.931Z,21.12
2023-05-15T09:24:46.941Z,21.1
2023-05-15T09:25:46.945Z,21.1
2023-05-15T09:26:46.958Z,21
2023-05-15T09:27:46.958Z,21
2023-05-15T09:28:46.980Z,20.97
2023-05-15T09:29:46.994Z,20.97
2023-05-15T09:30:47.005Z,20.97
2023-05-15T09:31:47.078Z,20.95
2023-05-15T09:32:47.067Z,20.92
2023-05-15T09:33:47.034Z,20.92
2023-05-15T09:34:47.061Z,20.94
2023-05-15T09:35:47.061Z,20.94
2023-05-15T09:36:47.095Z,20.94
2023-05-15T09:37:47.075Z,20.94
2023-05-15T09:38:47.089Z,20.94
2023-05-15T09:39:47.096Z,20.94
2023-05-15T09:40:46.118Z,20.94
2023-05-15T09:41:46.106Z,20.94
2023-05-15T09:42:46.137Z,20.94
2023-05-15T09:43:46.140Z,20.94
2023-05-15T09:44:46.158Z,20.92
2023-05-15T09:45:46.172Z,20.92
2023-05-15T09:46:46.225Z,20.92
2023-05-15T09:47:46.251Z,20.98
2023-05-15T09:48:46.253Z,21
2023-05-15T09:49:46.225Z,21
2023-05-15T09:50:46.235Z,21.02
2023-05-15T09:51:46.244Z,21.08
2023-05-15T09:52:46.258Z,21.12
2023-05-15T09:53:46.275Z,21.14
2023-05-15T09:54:48.088Z,21.14
2023-05-15T09:55:46.274Z,21.17
2023-05-15T09:56:46.282Z,21.19
2023-05-15T09:57:46.298Z,21.19
2023-05-15T09:58:46.301Z,21.2
2023-05-15T09:59:46.313Z,21.24
2023-05-15T10:00:47.531Z,21.3
2023-05-15T10:01:46.468Z,21.32
2023-05-15T10:02:46.371Z,21.34
2023-05-15T10:03:46.360Z,21.37
2023-05-15T10:04:46.376Z,21.37
2023-05-15T10:05:46.387Z,21.37
2023-05-15T10:06:46.397Z,21.37
2023-05-15T10:07:46.398Z,21.41
2023-05-15T10:08:46.404Z,21.45
2023-05-15T10:09:46.410Z,21.47
2023-05-15T10:10:46.415Z,21.51
2023-05-15T10:11:46.455Z,21.57
2023-05-15T10:12:48.295Z,21.63
2023-05-15T10:13:46.507Z,21.63
2023-05-15T10:14:46.537Z,21.65
2023-05-15T10:15:46.616Z,21.69
2023-05-15T10:16:46.593Z,21.69
2023-05-15T10:17:46.622Z,21.84
2023-05-15T10:18:46.665Z,21.82
2023-05-15T10:19:57.163Z,21.84
2023-05-15T10:20:46.693Z,21.87
2023-05-15T10:21:46.725Z,21.85
2023-05-15T10:22:46.745Z,21.96
2023-05-15T10:23:46.776Z,22
2023-05-15T10:24:46.798Z,22
2023-05-15T10:25:46.834Z,22
2023-05-15T10:26:46.852Z,22
2023-05-15T10:27:46.886Z,22
2023-05-15T10:28:46.903Z,22
2023-05-15T10:29:46.932Z,22
2023-05-15T10:30:46.940Z,22.02
2023-05-15T10:31:46.970Z,22
2023-05-15T10:32:47.011Z,22
2023-05-15T10:33:46.981Z,22.07
2023-05-15T10:34:46.987Z,22.07
2023-05-15T10:35:46.995Z,22.13
2023-05-15T10:36:47.004Z,22.13
2023-05-15T10:37:47.031Z,22.11
2023-05-15T10:38:47.027Z,22.14
2023-05-15T10:39:47.030Z,22.14
2023-05-15T10:40:47.041Z,22.16
2023-05-15T10:41:47.044Z,22.19
2023-05-15T10:42:47.063Z,22.25
2023-05-15T10:43:47.057Z,22.25
2023-05-15T10:44:47.062Z,22.25
2023-05-15T10:45:46.098Z,22.29
2023-05-15T10:46:46.170Z,22.36
2023-05-15T10:47:46.185Z,22.44
2023-05-15T10:48:46.185Z,22.62
2023-05-15T10:49:46.201Z,22.75
2023-05-15T10:50:46.227Z,22.89
2023-05-15T10:51:46.261Z,22.91
2023-05-15T10:52:46.290Z,22.97
2023-05-15T10:53:46.329Z,23.11
2023-05-15T10:54:46.324Z,23.11
2023-05-15T10:55:46.409Z,23.08
2023-05-15T10:56:46.380Z,23.16
2023-05-15T10:57:46.400Z,23.17
2023-05-15T10:58:46.445Z,23.25
2023-05-15T10:59:46.460Z,23.3
2023-05-15T11:00:46.521Z,23.33
2023-05-15T11:01:46.596Z,23.41
2023-05-15T11:02:46.541Z,23.44
2023-05-15T11:03:49.708Z,23.52
2023-05-15T11:04:46.681Z,23.5
2023-05-15T11:05:46.591Z,23.48
2023-05-15T11:06:46.616Z,23.49
2023-05-15T11:07:46.604Z,23.44
2023-05-15T11:08:46.661Z,23.36
2023-05-15T11:09:46.638Z,23.32
2023-05-15T11:10:46.642Z,23.29
2023-05-15T11:11:46.654Z,23.23
2023-05-15T11:12:46.673Z,23.21
2023-05-15T11:13:46.701Z,23.16
2023-05-15T11:14:46.716Z,23.16
2023-05-15T11:15:46.764Z,23.1
2023-05-15T11:16:46.793Z,23.08
2023-05-15T11:17:46.814Z,23.04
2023-05-15T11:18:46.866Z,22.91
2023-05-15T11:19:46.874Z,22.88
2023-05-15T11:20:46.889Z,22.86
2023-05-15T11:21:46.906Z,22.9
2023-05-15T11:22:46.938Z,22.88
2023-05-15T11:23:46.961Z,22.86
2023-05-15T11:24:46.991Z,22.86
2023-05-15T11:25:47.009Z,22.92
2023-05-15T11:26:47.034Z,22.92
2023-05-15T11:27:47.066Z,22.96
2023-05-15T11:28:47.105Z,22.96
2023-05-15T11:29:46.110Z,22.97
2023-05-15T11:30:46.142Z,22.97
2023-05-15T11:31:46.144Z,23.01
2023-05-15T11:32:46.176Z,23.04
2023-05-15T11:33:46.188Z,23.2
2023-05-15T11:34:46.211Z,23.4
2023-05-15T11:35:46.232Z,23.36
2023-05-15T11:36:46.234Z,23.33
2023-05-15T11:37:46.247Z,23.3
2023-05-15T11:38:46.254Z,23.21
2023-05-15T11:39:46.266Z,23.17
2023-05-15T11:40:46.293Z,23.1
2023-05-15T11:41:46.302Z,23.05
2023-05-15T11:42:46.328Z,23.03
2023-05-15T11:43:46.358Z,22.97
2023-05-15T11:44:46.388Z,22.94
2023-05-15T11:45:46.449Z,22.94
2023-05-15T11:46:46.536Z,22.94
2023-05-15T11:47:46.503Z,22.94
2023-05-15T11:48:46.499Z,22.94
2023-05-15T11:49:46.524Z,22.94
2023-05-15T11:50:46.550Z,22.94
2023-05-15T11:51:46.579Z,22.94
2023-05-15T11:52:46.615Z,22.94
2023-05-15T11:53:46.624Z,22.95
2023-05-15T11:54:46.657Z,22.96
2023-05-15T11:55:46.679Z,22.96
2023-05-15T11:56:46.726Z,22.98
2023-05-15T11:57:46.720Z,22.98
2023-05-15T11:58:46.749Z,22.98
2023-05-15T11:59:46.778Z,23.01
2023-05-15T12:00:46.818Z,23.01
2023-05-15T12:01:46.822Z,23.08
2023-05-15T12:02:46.863Z,23.12
2023-05-15T12:03:47.025Z,23.12
2023-05-15T12:04:46.907Z,23.12
2023-05-15T12:05:57.624Z,23.1
2023-05-15T12:06:46.926Z,23.05
2023-05-15T12:07:46.929Z,23.07
2023-05-15T12:08:46.946Z,23.04
2023-05-15T12:09:46.950Z,23
2023-05-15T12:10:46.953Z,23
2023-05-15T12:11:46.966Z,22.98
2023-05-15T12:12:47.003Z,22.98
2023-05-15T12:13:47.027Z,22.96
2023-05-15T12:14:47.051Z,22.92
2023-05-15T12:15:47.075Z,22.92
2023-05-15T12:16:47.093Z,22.89
2023-05-15T12:17:46.239Z,22.89
2023-05-15T12:18:46.142Z,22.95
2023-05-15T12:19:46.158Z,22.93
2023-05-15T12:20:46.163Z,23.02
2023-05-15T12:21:46.185Z,23.15
2023-05-15T12:22:46.201Z,23.26
2023-05-15T12:23:53.265Z,23.26
2023-05-15T12:24:46.237Z,23.28
2023-05-15T12:25:46.258Z,23.29
2023-05-15T12:26:46.266Z,23.38
2023-05-15T12:27:46.290Z,23.49
2023-05-15T12:28:46.367Z,23.76
2023-05-15T12:29:46.324Z,24
2023-05-15T12:30:46.338Z,24.02
2023-05-15T12:31:46.420Z,24.02
2023-05-15T12:32:46.456Z,23.93
2023-05-15T12:33:46.376Z,23.93
2023-05-15T12:34:46.398Z,24.01
2023-05-15T12:35:46.401Z,23.86
2023-05-15T12:36:46.426Z,23.81
2023-05-15T12:37:46.450Z,23.76
2023-05-15T12:38:46.482Z,23.78
2023-05-15T12:39:46.516Z,23.77
2023-05-15T12:40:46.563Z,23.77
2023-05-15T12:41:47.879Z,23.83
2023-05-15T12:42:46.602Z,23.86
2023-05-15T12:43:46.630Z,23.9
2023-05-15T12:44:46.659Z,23.98
2023-05-15T12:45:46.719Z,23.98
2023-05-15T12:46:46.710Z,23.98
2023-05-15T12:47:46.812Z,24.03
2023-05-15T12:48:46.751Z,24.09
2023-05-15T12:49:46.783Z,24.07
2023-05-15T12:50:46.804Z,24.06
2023-05-15T12:51:46.830Z,24.06
2023-05-15T12:52:46.850Z,24.09
2023-05-15T12:53:46.872Z,24.08
2023-05-15T12:54:46.903Z,24.1
2023-05-15T12:55:47.037Z,24.15
2023-05-15T12:56:46.939Z,24.19
2023-05-15T12:57:46.955Z,24.13
2023-05-15T12:58:46.961Z,24.07
2023-05-15T12:59:46.977Z,24.02
2023-05-15T13:00:46.990Z,24
2023-05-15T13:01:47.054Z,23.97
2023-05-15T13:02:47.076Z,23.91
2023-05-15T13:03:47.167Z,23.87
2023-05-15T13:04:47.032Z,23.83
2023-05-15T13:05:47.039Z,23.69
2023-05-15T13:06:47.985Z,23.61
2023-05-15T13:07:46.095Z,23.57
2023-05-15T13:08:47.724Z,23.51
2023-05-15T13:09:46.152Z,23.48
2023-05-15T13:10:46.213Z,23.33
2023-05-15T13:11:46.195Z,23.3
2023-05-15T13:12:46.227Z,23.28
2023-05-15T13:13:46.256Z,23.29
2023-05-15T13:14:46.287Z,23.14
2023-05-15T13:15:46.324Z,23.14
2023-05-15T13:16:46.364Z,23.12
2023-05-15T13:17:46.399Z,23.12
2023-05-15T13:18:46.415Z,23.08
2023-05-15T13:19:46.421Z,23.04
2023-05-15T13:20:46.411Z,23.04
2023-05-15T13:21:46.440Z,23.02
2023-05-15T13:22:46.462Z,23.02
2023-05-15T13:23:46.521Z,23.02
2023-05-15T13:24:46.492Z,23.02
2023-05-15T13:25:46.499Z,23.02
2023-05-15T13:26:46.525Z,23.02
2023-05-15T13:27:46.527Z,23.04
2023-05-15T13:28:46.547Z,23.1
2023-05-15T13:29:46.562Z,23.1
2023-05-15T13:30:46.562Z,23.1
2023-05-15T13:31:46.801Z,23.1
2023-05-15T13:32:46.641Z,23.1
2023-05-15T13:33:46.642Z,23.04
2023-05-15T13:34:46.651Z,23.04
2023-05-15T13:35:46.675Z,23.04
2023-05-15T13:36:46.702Z,23.04
2023-05-15T13:37:46.718Z,23.01
2023-05-15T13:38:46.760Z,22.97
2023-05-15T13:39:46.770Z,22.94
2023-05-15T13:40:46.800Z,22.94
2023-05-15T13:41:46.828Z,22.94
2023-05-15T13:42:46.872Z,22.92
2023-05-15T13:43:46.883Z,22.98
2023-05-15T13:44:46.910Z,22.93
2023-05-15T13:45:46.933Z,22.93
2023-05-15T13:46:47.026Z,22.95
2023-05-15T13:47:47.023Z,22.97
2023-05-15T13:48:47.018Z,23
2023-05-15T13:49:46.984Z,23.02
2023-05-15T13:50:47.022Z,23.04
2023-05-15T13:51:47.028Z,23.07
2023-05-15T13:52:47.035Z,23.15
2023-05-15T13:53:47.051Z,23.2
2023-05-15T13:54:47.069Z,23.2
2023-05-15T13:55:47.183Z,23.24
2023-05-15T13:56:46.103Z,23.24
2023-05-15T13:57:46.146Z,23.24
2023-05-15T13:58:46.196Z,23.21
2023-05-15T13:59:46.195Z,23.17
2023-05-15T14:00:46.235Z,23.17
2023-05-15T14:01:46.236Z,23.15
2023-05-15T14:02:46.282Z,23.05
2023-05-15T14:03:46.313Z,23.02
2023-05-15T14:04:46.313Z,22.95
2023-05-15T14:05:46.357Z,22.84
2023-05-15T14:06:46.363Z,22.75
2023-05-15T14:07:46.383Z,22.58
2023-05-15T14:08:46.416Z,22.42
2023-05-15T14:09:46.440Z,22.25
2023-05-15T14:10:46.469Z,22.12
2023-05-15T14:11:46.499Z,22.04
2023-05-15T14:12:46.518Z,21.88
2023-05-15T14:13:46.552Z,21.71
2023-05-15T14:14:46.578Z,21.59
2023-05-15T14:15:46.595Z,21.44
2023-05-15T14:16:46.685Z,21.32
2023-05-15T14:17:46.651Z,21.16
2023-05-15T14:18:46.677Z,21.12
2023-05-15T14:19:46.664Z,21.02
2023-05-15T14:20:46.697Z,21.02
2023-05-15T14:21:46.691Z,20.95
2023-05-15T14:22:46.701Z,20.91
2023-05-15T14:23:46.702Z,20.91
2023-05-15T14:24:46.744Z,20.93
2023-05-15T14:25:46.718Z,20.88
2023-05-15T14:26:46.759Z,20.88
2023-05-15T14:27:46.768Z,20.88
2023-05-15T14:28:46.799Z,20.84
2023-05-15T14:29:46.830Z,20.78
2023-05-15T14:30:46.852Z,20.75
2023-05-15T14:31:46.908Z,20.64
2023-05-15T14:32:46.934Z,20.58